sensor_id;sensor_type;location;lat;lon;timestamp;pressure;altitude;pressure_sealevel;temperature;humidity
37206;BME280;23099;42.636;23.198;2023-04-03T00:02:26;91404.47;;;4.98;82.56
37206;BME280;23099;42.636;23.198;2023-04-03T00:04:52;91395.56;;;4.91;83.15
37206;BME280;23099;42.636;23.198;2023-04-03T00:07:19;91391.78;;;4.92;83.60
37206;BME280;23099;42.636;23.198;2023-04-03T00:09:46;91402.06;;;4.93;83.58
37206;BME280;23099;42.636;23.198;2023-04-03T00:12:13;91391.91;;;4.95;83.86
37206;BME280;23099;42.636;23.198;2023-04-03T00:14:40;91395.31;;;4.96;83.64
37206;BME280;23099;42.636;23.198;2023-04-03T00:17:08;91386.81;;;4.59;84.78
37206;BME280;23099;42.636;23.198;2023-04-03T00:19:35;91392.38;;;4.70;84.86
37206;BME280;23099;42.636;23.198;2023-04-03T00:22:02;91400.88;;;4.63;83.71
37206;BME280;23099;42.636;23.198;2023-04-03T00:24:28;91399.69;;;4.60;84.47
37206;BME280;23099;42.636;23.198;2023-04-03T00:26:55;91395.19;;;4.61;85.59
37206;BME280;23099;42.636;23.198;2023-04-03T00:29:22;91385.00;;;4.63;85.74
37206;BME280;23099;42.636;23.198;2023-04-03T00:31:49;91393.03;;;4.67;85.84
37206;BME280;23099;42.636;23.198;2023-04-03T00:34:17;91394.34;;;4.73;86.15
37206;BME280;23099;42.636;23.198;2023-04-03T00:36:44;91395.69;;;4.67;84.62
37206;BME280;23099;42.636;23.198;2023-04-03T00:39:10;91401.25;;;4.61;85.46
37206;BME280;23099;42.636;23.198;2023-04-03T00:41:37;91398.00;;;4.68;85.71
37206;BME280;23099;42.636;23.198;2023-04-03T00:44:19;91393.38;;;4.65;85.41
37206;BME280;23099;42.636;23.198;2023-04-03T00:46:46;91395.25;;;4.65;85.79
37206;BME280;23099;42.636;23.198;2023-04-03T00:49:12;91395.78;;;4.70;85.63
37206;BME280;23099;42.636;23.198;2023-04-03T00:51:41;91401.47;;;4.56;85.10
37206;BME280;23099;42.636;23.198;2023-04-03T00:54:08;91397.63;;;4.54;85.31
37206;BME280;23099;42.636;23.198;2023-04-03T00:56:35;91399.97;;;4.43;85.16
37206;BME280;23099;42.636;23.198;2023-04-03T00:59:05;91399.50;;;4.53;85.15
37206;BME280;23099;42.636;23.198;2023-04-03T01:01:33;91396.22;;;4.44;85.19
37206;BME280;23099;42.636;23.198;2023-04-03T01:04:00;91401.41;;;4.41;85.96
37206;BME280;23099;42.636;23.198;2023-04-03T01:06:33;91393.47;;;4.41;86.08
37206;BME280;23099;42.636;23.198;2023-04-03T01:09:03;91401.59;;;4.48;86.01
37206;BME280;23099;42.636;23.198;2023-04-03T01:11:30;91399.72;;;4.48;85.83
37206;BME280;23099;42.636;23.198;2023-04-03T01:13:56;91398.38;;;4.54;85.32
37206;BME280;23099;42.636;23.198;2023-04-03T01:16:23;91401.47;;;4.56;85.17
37206;BME280;23099;42.636;23.198;2023-04-03T01:18:50;91400.25;;;4.54;85.32
37206;BME280;23099;42.636;23.198;2023-04-03T01:21:52;91393.44;;;4.53;85.72
37206;BME280;23099;42.636;23.198;2023-04-03T01:24:29;91393.19;;;4.58;85.43
37206;BME280;23099;42.636;23.198;2023-04-03T01:26:59;91392.94;;;4.63;85.32
37206;BME280;23099;42.636;23.198;2023-04-03T01:29:27;91388.75;;;4.62;85.16
37206;BME280;23099;42.636;23.198;2023-04-03T01:31:56;91387.66;;;4.63;84.88
37206;BME280;23099;42.636;23.198;2023-04-03T01:34:23;91388.09;;;4.65;84.37
37206;BME280;23099;42.636;23.198;2023-04-03T01:36:51;91391.56;;;4.53;84.19
37206;BME280;23099;42.636;23.198;2023-04-03T01:39:18;91397.84;;;4.49;84.36
37206;BME280;23099;42.636;23.198;2023-04-03T01:41:45;91395.91;;;4.46;84.70
37206;BME280;23099;42.636;23.198;2023-04-03T01:44:12;91389.19;;;4.36;84.77
37206;BME280;23099;42.636;23.198;2023-04-03T01:46:38;91389.78;;;4.30;85.45
37206;BME280;23099;42.636;23.198;2023-04-03T01:49:09;91388.50;;;4.11;86.17
37206;BME280;23099;42.636;23.198;2023-04-03T01:51:35;91387.19;;;4.17;86.67
37206;BME280;23099;42.636;23.198;2023-04-03T01:54:02;91387.94;;;4.18;86.71
37206;BME280;23099;42.636;23.198;2023-04-03T01:56:29;91391.34;;;4.18;86.56
37206;BME280;23099;42.636;23.198;2023-04-03T01:58:55;91385.66;;;4.16;87.05
37206;BME280;23099;42.636;23.198;2023-04-03T02:01:22;91389.25;;;4.24;87.17
37206;BME280;23099;42.636;23.198;2023-04-03T02:03:49;91378.88;;;4.31;86.44
37206;BME280;23099;42.636;23.198;2023-04-03T02:06:17;91382.03;;;4.37;86.20
37206;BME280;23099;42.636;23.198;2023-04-03T02:08:44;91375.31;;;4.39;85.98
37206;BME280;23099;42.636;23.198;2023-04-03T02:11:10;91380.38;;;4.44;85.68
37206;BME280;23099;42.636;23.198;2023-04-03T02:13:37;91380.59;;;4.39;85.70
37206;BME280;23099;42.636;23.198;2023-04-03T02:16:08;91379.50;;;4.40;85.10
37206;BME280;23099;42.636;23.198;2023-04-03T02:18:35;91386.16;;;4.22;84.46
37206;BME280;23099;42.636;23.198;2023-04-03T02:21:02;91379.03;;;4.10;85.18
37206;BME280;23099;42.636;23.198;2023-04-03T02:23:30;91370.22;;;4.06;85.48
37206;BME280;23099;42.636;23.198;2023-04-03T02:26:03;91369.38;;;4.02;85.45
37206;BME280;23099;42.636;23.198;2023-04-03T02:28:31;91368.50;;;3.98;85.81
37206;BME280;23099;42.636;23.198;2023-04-03T02:30:57;91369.47;;;4.06;86.64
37206;BME280;23099;42.636;23.198;2023-04-03T02:33:24;91364.97;;;3.94;87.47
37206;BME280;23099;42.636;23.198;2023-04-03T02:35:53;91364.75;;;3.99;87.14
37206;BME280;23099;42.636;23.198;2023-04-03T02:38:19;91362.69;;;3.80;85.98
37206;BME280;23099;42.636;23.198;2023-04-03T02:40:48;91360.50;;;3.82;86.93
37206;BME280;23099;42.636;23.198;2023-04-03T02:43:14;91366.53;;;3.83;86.63
37206;BME280;23099;42.636;23.198;2023-04-03T02:45:41;91363.91;;;3.83;86.61
37206;BME280;23099;42.636;23.198;2023-04-03T02:48:08;91355.97;;;3.83;87.76
37206;BME280;23099;42.636;23.198;2023-04-03T02:50:34;91358.06;;;3.89;87.87
37206;BME280;23099;42.636;23.198;2023-04-03T02:53:01;91345.69;;;3.94;87.96
37206;BME280;23099;42.636;23.198;2023-04-03T02:55:28;91347.44;;;4.02;88.08
37206;BME280;23099;42.636;23.198;2023-04-03T02:57:56;91347.13;;;4.03;88.89
37206;BME280;23099;42.636;23.198;2023-04-03T03:00:22;91350.72;;;4.11;89.52
37206;BME280;23099;42.636;23.198;2023-04-03T03:02:49;91350.50;;;4.16;88.86
37206;BME280;23099;42.636;23.198;2023-04-03T03:05:16;91338.03;;;4.16;88.13
37206;BME280;23099;42.636;23.198;2023-04-03T03:07:43;91340.00;;;4.19;89.44
37206;BME280;23099;42.636;23.198;2023-04-03T03:10:09;91335.78;;;4.31;89.58
37206;BME280;23099;42.636;23.198;2023-04-03T03:16:18;91331.00;;;4.36;88.63
37206;BME280;23099;42.636;23.198;2023-04-03T03:18:45;91329.03;;;4.33;88.43
37206;BME280;23099;42.636;23.198;2023-04-03T03:21:11;91326.13;;;4.38;89.22
37206;BME280;23099;42.636;23.198;2023-04-03T03:23:38;91325.47;;;4.41;88.13
37206;BME280;23099;42.636;23.198;2023-04-03T03:26:07;91325.88;;;4.28;86.80
37206;BME280;23099;42.636;23.198;2023-04-03T03:28:35;91332.50;;;4.21;87.58
37206;BME280;23099;42.636;23.198;2023-04-03T03:31:02;91323.50;;;4.10;87.46
37206;BME280;23099;42.636;23.198;2023-04-03T03:33:31;91323.50;;;4.10;88.22
37206;BME280;23099;42.636;23.198;2023-04-03T03:35:58;91322.63;;;4.06;89.14
37206;BME280;23099;42.636;23.198;2023-04-03T03:38:25;91333.97;;;4.07;88.66
37206;BME280;23099;42.636;23.198;2023-04-03T03:40:51;91334.31;;;4.05;88.51
37206;BME280;23099;42.636;23.198;2023-04-03T03:43:18;91317.59;;;4.01;89.17
37206;BME280;23099;42.636;23.198;2023-04-03T03:45:49;91307.59;;;3.95;89.19
37206;BME280;23099;42.636;23.198;2023-04-03T03:48:17;91324.50;;;4.06;89.35
37206;BME280;23099;42.636;23.198;2023-04-03T03:50:45;91321.53;;;4.07;90.23
37206;BME280;23099;42.636;23.198;2023-04-03T03:53:12;91315.81;;;4.05;90.99
37206;BME280;23099;42.636;23.198;2023-04-03T03:55:39;91323.13;;;4.24;90.91
37206;BME280;23099;42.636;23.198;2023-04-03T03:58:06;91313.13;;;4.17;89.05
37206;BME280;23099;42.636;23.198;2023-04-03T04:00:32;91319.00;;;4.11;90.05
37206;BME280;23099;42.636;23.198;2023-04-03T04:02:59;91318.31;;;4.14;91.10
37206;BME280;23099;42.636;23.198;2023-04-03T04:05:26;91314.13;;;4.13;91.66
37206;BME280;23099;42.636;23.198;2023-04-03T04:07:54;91314.13;;;4.13;92.07
37206;BME280;23099;42.636;23.198;2023-04-03T04:10:21;91318.06;;;4.19;92.43
37206;BME280;23099;42.636;23.198;2023-04-03T04:12:48;91320.25;;;4.29;91.86
37206;BME280;23099;42.636;23.198;2023-04-03T04:15:16;91332.44;;;4.34;91.66
37206;BME280;23099;42.636;23.198;2023-04-03T04:17:43;91335.28;;;4.41;91.66
37206;BME280;23099;42.636;23.198;2023-04-03T04:20:11;91342.28;;;4.49;91.59
37206;BME280;23099;42.636;23.198;2023-04-03T04:22:38;91340.72;;;4.60;92.22
37206;BME280;23099;42.636;23.198;2023-04-03T04:25:07;91328.41;;;4.68;91.74
37206;BME280;23099;42.636;23.198;2023-04-03T04:27:34;91324.13;;;4.63;91.61
37206;BME280;23099;42.636;23.198;2023-04-03T04:30:00;91318.78;;;4.75;91.51
37206;BME280;23099;42.636;23.198;2023-04-03T04:32:28;91327.66;;;4.83;91.35
37206;BME280;23099;42.636;23.198;2023-04-03T04:34:54;91327.47;;;4.91;91.49
37206;BME280;23099;42.636;23.198;2023-04-03T04:37:21;91341.34;;;5.01;91.87
37206;BME280;23099;42.636;23.198;2023-04-03T04:39:48;91335.78;;;5.06;91.66
37206;BME280;23099;42.636;23.198;2023-04-03T04:42:16;91344.31;;;5.15;91.44
37206;BME280;23099;42.636;23.198;2023-04-03T04:44:43;91328.44;;;5.15;91.44
37206;BME280;23099;42.636;23.198;2023-04-03T04:47:10;91340.38;;;5.24;90.83
37206;BME280;23099;42.636;23.198;2023-04-03T04:49:37;91346.97;;;5.30;90.92
37206;BME280;23099;42.636;23.198;2023-04-03T04:52:04;91344.47;;;5.38;91.41
37206;BME280;23099;42.636;23.198;2023-04-03T04:54:30;91331.56;;;5.36;90.61
37206;BME280;23099;42.636;23.198;2023-04-03T04:56:57;91360.59;;;5.48;90.46
37206;BME280;23099;42.636;23.198;2023-04-03T04:59:25;91354.03;;;5.58;89.96
37206;BME280;23099;42.636;23.198;2023-04-03T05:01:52;91356.81;;;5.65;89.82
37206;BME280;23099;42.636;23.198;2023-04-03T05:04:19;91364.28;;;5.75;89.90
37206;BME280;23099;42.636;23.198;2023-04-03T05:06:45;91358.34;;;5.82;89.78
37206;BME280;23099;42.636;23.198;2023-04-03T05:09:12;91363.38;;;5.87;89.62
37206;BME280;23099;42.636;23.198;2023-04-03T05:11:39;91376.13;;;5.97;88.88
37206;BME280;23099;42.636;23.198;2023-04-03T05:14:05;91374.03;;;6.06;88.91
37206;BME280;23099;42.636;23.198;2023-04-03T05:16:34;91371.97;;;6.15;88.13
37206;BME280;23099;42.636;23.198;2023-04-03T05:19:01;91366.75;;;6.19;87.89
37206;BME280;23099;42.636;23.198;2023-04-03T05:21:27;91370.03;;;6.31;87.52
37206;BME280;23099;42.636;23.198;2023-04-03T05:23:57;91383.06;;;6.40;86.84
37206;BME280;23099;42.636;23.198;2023-04-03T05:26:24;91377.78;;;6.40;87.13
37206;BME280;23099;42.636;23.198;2023-04-03T05:28:51;91380.50;;;6.44;87.67
37206;BME280;23099;42.636;23.198;2023-04-03T05:31:18;91369.53;;;6.45;87.56
37206;BME280;23099;42.636;23.198;2023-04-03T05:33:46;91362.84;;;6.32;87.99
37206;BME280;23099;42.636;23.198;2023-04-03T05:36:12;91367.16;;;6.40;87.60
37206;BME280;23099;42.636;23.198;2023-04-03T05:38:39;91359.53;;;6.38;87.39
37206;BME280;23099;42.636;23.198;2023-04-03T05:41:06;91366.59;;;6.50;86.90
37206;BME280;23099;42.636;23.198;2023-04-03T05:43:33;91360.59;;;6.53;87.18
37206;BME280;23099;42.636;23.198;2023-04-03T05:46:03;91360.66;;;6.57;87.10
37206;BME280;23099;42.636;23.198;2023-04-03T05:48:29;91349.19;;;6.53;86.95
37206;BME280;23099;42.636;23.198;2023-04-03T05:50:58;91351.69;;;6.65;86.34
37206;BME280;23099;42.636;23.198;2023-04-03T05:53:27;91343.94;;;6.76;86.50
37206;BME280;23099;42.636;23.198;2023-04-03T05:55:54;91347.28;;;6.72;85.35
37206;BME280;23099;42.636;23.198;2023-04-03T05:58:21;91350.38;;;6.74;85.17
37206;BME280;23099;42.636;23.198;2023-04-03T06:00:48;91345.69;;;6.68;86.10
37206;BME280;23099;42.636;23.198;2023-04-03T06:03:14;91340.53;;;6.75;85.29
37206;BME280;23099;42.636;23.198;2023-04-03T06:05:42;91343.97;;;6.79;86.18
37206;BME280;23099;42.636;23.198;2023-04-03T06:08:10;91338.47;;;6.88;86.37
37206;BME280;23099;42.636;23.198;2023-04-03T06:10:37;91327.53;;;6.93;85.87
37206;BME280;23099;42.636;23.198;2023-04-03T06:13:05;91318.50;;;6.97;85.23
37206;BME280;23099;42.636;23.198;2023-04-03T06:15:31;91321.34;;;7.08;85.46
37206;BME280;23099;42.636;23.198;2023-04-03T06:17:59;91314.03;;;7.01;84.18
37206;BME280;23099;42.636;23.198;2023-04-03T06:20:25;91330.50;;;7.10;84.93
37206;BME280;23099;42.636;23.198;2023-04-03T06:22:52;91333.63;;;7.16;84.49
37206;BME280;23099;42.636;23.198;2023-04-03T06:25:20;91330.78;;;7.28;84.00
37206;BME280;23099;42.636;23.198;2023-04-03T06:27:47;91326.25;;;7.29;82.65
37206;BME280;23099;42.636;23.198;2023-04-03T06:30:13;91316.38;;;7.29;82.28
37206;BME280;23099;42.636;23.198;2023-04-03T06:32:40;91326.34;;;7.36;82.59
37206;BME280;23099;42.636;23.198;2023-04-03T06:35:08;91336.50;;;7.30;81.40
37206;BME280;23099;42.636;23.198;2023-04-03T06:37:36;91333.84;;;7.30;82.08
37206;BME280;23099;42.636;23.198;2023-04-03T06:40:03;91339.81;;;7.24;82.19
37206;BME280;23099;42.636;23.198;2023-04-03T06:42:32;91336.44;;;7.27;81.55
37206;BME280;23099;42.636;23.198;2023-04-03T06:44:58;91328.41;;;7.23;82.65
37206;BME280;23099;42.636;23.198;2023-04-03T06:47:25;91324.41;;;7.33;81.66
37206;BME280;23099;42.636;23.198;2023-04-03T06:49:52;91336.38;;;7.46;80.46
37206;BME280;23099;42.636;23.198;2023-04-03T06:52:19;91340.75;;;7.58;80.57
37206;BME280;23099;42.636;23.198;2023-04-03T06:54:46;91348.88;;;7.68;80.22
37206;BME280;23099;42.636;23.198;2023-04-03T06:57:12;91343.25;;;7.73;80.33
37206;BME280;23099;42.636;23.198;2023-04-03T06:59:42;91349.41;;;7.77;79.72
37206;BME280;23099;42.636;23.198;2023-04-03T07:02:10;91357.59;;;7.92;79.20
37206;BME280;23099;42.636;23.198;2023-04-03T07:04:38;91350.75;;;7.94;79.48
37206;BME280;23099;42.636;23.198;2023-04-03T07:07:05;91350.09;;;8.01;78.76
37206;BME280;23099;42.636;23.198;2023-04-03T07:09:31;91355.41;;;8.01;77.48
37206;BME280;23099;42.636;23.198;2023-04-03T07:11:58;91347.84;;;8.03;77.46
37206;BME280;23099;42.636;23.198;2023-04-03T07:14:25;91348.97;;;8.02;77.98
37206;BME280;23099;42.636;23.198;2023-04-03T07:16:53;91356.38;;;8.15;77.86
37206;BME280;23099;42.636;23.198;2023-04-03T07:19:20;91349.22;;;8.23;76.63
37206;BME280;23099;42.636;23.198;2023-04-03T07:21:46;91348.56;;;8.30;76.51
37206;BME280;23099;42.636;23.198;2023-04-03T07:24:13;91352.28;;;8.22;77.21
37206;BME280;23099;42.636;23.198;2023-04-03T07:26:40;91348.16;;;8.28;76.78
37206;BME280;23099;42.636;23.198;2023-04-03T07:29:07;91345.28;;;8.36;76.88
37206;BME280;23099;42.636;23.198;2023-04-03T07:31:34;91347.25;;;8.43;75.78
37206;BME280;23099;42.636;23.198;2023-04-03T07:34:02;91330.59;;;8.53;75.93
37206;BME280;23099;42.636;23.198;2023-04-03T07:36:29;91335.16;;;8.52;75.40
37206;BME280;23099;42.636;23.198;2023-04-03T07:38:58;91329.94;;;8.60;75.59
37206;BME280;23099;42.636;23.198;2023-04-03T07:41:25;91320.88;;;8.68;75.20
37206;BME280;23099;42.636;23.198;2023-04-03T07:43:52;91318.75;;;8.84;74.32
37206;BME280;23099;42.636;23.198;2023-04-03T07:46:18;91313.22;;;9.00;74.25
37206;BME280;23099;42.636;23.198;2023-04-03T07:48:46;91307.78;;;8.89;73.33
37206;BME280;23099;42.636;23.198;2023-04-03T07:51:14;91317.00;;;8.99;72.69
37206;BME280;23099;42.636;23.198;2023-04-03T07:53:41;91313.97;;;9.00;72.56
37206;BME280;23099;42.636;23.198;2023-04-03T07:56:08;91308.97;;;8.95;72.02
37206;BME280;23099;42.636;23.198;2023-04-03T07:58:35;91294.91;;;8.98;72.84
37206;BME280;23099;42.636;23.198;2023-04-03T08:01:03;91292.09;;;8.80;71.35
37206;BME280;23099;42.636;23.198;2023-04-03T08:03:30;91286.44;;;8.85;72.06
37206;BME280;23099;42.636;23.198;2023-04-03T08:06:01;91297.22;;;9.00;72.35
37206;BME280;23099;42.636;23.198;2023-04-03T08:08:30;91288.94;;;9.08;71.70
37206;BME280;23099;42.636;23.198;2023-04-03T08:10:59;91294.59;;;9.03;71.96
37206;BME280;23099;42.636;23.198;2023-04-03T08:13:28;91295.03;;;9.12;72.34
37206;BME280;23099;42.636;23.198;2023-04-03T08:15:55;91293.88;;;9.06;72.05
37206;BME280;23099;42.636;23.198;2023-04-03T08:18:23;91295.53;;;9.25;71.99
37206;BME280;23099;42.636;23.198;2023-04-03T08:20:51;91294.09;;;9.35;72.24
37206;BME280;23099;42.636;23.198;2023-04-03T08:23:18;91298.31;;;9.39;69.79
37206;BME280;23099;42.636;23.198;2023-04-03T08:25:46;91301.41;;;9.45;70.86
37206;BME280;23099;42.636;23.198;2023-04-03T08:28:13;91295.72;;;9.46;69.74
37206;BME280;23099;42.636;23.198;2023-04-03T08:30:40;91294.50;;;9.40;70.34
37206;BME280;23099;42.636;23.198;2023-04-03T08:33:08;91288.03;;;9.41;70.20
37206;BME280;23099;42.636;23.198;2023-04-03T08:35:38;91287.75;;;9.50;70.07
37206;BME280;23099;42.636;23.198;2023-04-03T08:38:06;91281.66;;;9.53;69.84
37206;BME280;23099;42.636;23.198;2023-04-03T08:40:32;91282.34;;;9.43;69.64
37206;BME280;23099;42.636;23.198;2023-04-03T08:43:13;91278.22;;;9.52;69.70
37206;BME280;23099;42.636;23.198;2023-04-03T08:45:46;91285.06;;;9.53;69.29
37206;BME280;23099;42.636;23.198;2023-04-03T08:48:19;91280.91;;;9.56;69.28
37206;BME280;23099;42.636;23.198;2023-04-03T08:50:50;91279.75;;;9.53;69.53
37206;BME280;23099;42.636;23.198;2023-04-03T08:53:20;91276.31;;;9.49;70.10
37206;BME280;23099;42.636;23.198;2023-04-03T08:55:49;91277.88;;;9.57;69.53
37206;BME280;23099;42.636;23.198;2023-04-03T08:58:19;91266.50;;;9.64;70.36
37206;BME280;23099;42.636;23.198;2023-04-03T09:00:48;91259.56;;;9.56;70.21
37206;BME280;23099;42.636;23.198;2023-04-03T09:03:17;91257.34;;;9.69;69.72
37206;BME280;23099;42.636;23.198;2023-04-03T09:05:48;91256.63;;;9.72;69.20
37206;BME280;23099;42.636;23.198;2023-04-03T09:08:25;91252.88;;;9.80;68.73
37206;BME280;23099;42.636;23.198;2023-04-03T09:11:03;91237.22;;;9.78;68.25
37206;BME280;23099;42.636;23.198;2023-04-03T09:13:39;91247.94;;;9.89;69.26
37206;BME280;23099;42.636;23.198;2023-04-03T09:16:20;91233.44;;;9.79;67.59
37206;BME280;23099;42.636;23.198;2023-04-03T09:18:53;91223.91;;;9.85;67.37
37206;BME280;23099;42.636;23.198;2023-04-03T09:21:29;91230.06;;;9.97;67.03
37206;BME280;23099;42.636;23.198;2023-04-03T09:24:00;91219.38;;;9.97;66.14
37206;BME280;23099;42.636;23.198;2023-04-03T09:26:31;91209.50;;;10.01;66.56
37206;BME280;23099;42.636;23.198;2023-04-03T09:29:05;91211.38;;;9.93;65.00
37206;BME280;23099;42.636;23.198;2023-04-03T09:31:36;91207.22;;;10.06;64.24
37206;BME280;23099;42.636;23.198;2023-04-03T09:34:06;91205.34;;;10.17;64.35
37206;BME280;23099;42.636;23.198;2023-04-03T09:36:40;91200.47;;;10.23;63.74
37206;BME280;23099;42.636;23.198;2023-04-03T09:39:11;91189.75;;;10.26;64.48
37206;BME280;23099;42.636;23.198;2023-04-03T09:41:37;91182.16;;;10.32;62.78
37206;BME280;23099;42.636;23.198;2023-04-03T09:44:20;91166.13;;;10.28;62.56
37206;BME280;23099;42.636;23.198;2023-04-03T09:46:47;91179.88;;;10.34;61.83
37206;BME280;23099;42.636;23.198;2023-04-03T09:49:14;91191.38;;;10.49;61.84
37206;BME280;23099;42.636;23.198;2023-04-03T09:51:41;91181.44;;;10.56;60.56
37206;BME280;23099;42.636;23.198;2023-04-03T09:54:35;91181.84;;;10.51;62.40
37206;BME280;23099;42.636;23.198;2023-04-03T09:57:08;91176.09;;;10.56;62.33
37206;BME280;23099;42.636;23.198;2023-04-03T09:59:45;91171.91;;;10.73;62.99
37206;BME280;23099;42.636;23.198;2023-04-03T10:02:30;91188.72;;;10.84;61.00
37206;BME280;23099;42.636;23.198;2023-04-03T10:04:58;91160.09;;;10.74;60.59
37206;BME280;23099;42.636;23.198;2023-04-03T10:07:31;91173.06;;;10.86;61.01
37206;BME280;23099;42.636;23.198;2023-04-03T10:10:00;91173.81;;;10.83;59.31
37206;BME280;23099;42.636;23.198;2023-04-03T10:12:28;91170.00;;;10.74;58.66
37206;BME280;23099;42.636;23.198;2023-04-03T10:14:58;91162.75;;;10.63;58.51
37206;BME280;23099;42.636;23.198;2023-04-03T10:17:48;91168.50;;;10.66;58.72
37206;BME280;23099;42.636;23.198;2023-04-03T10:20:27;91163.91;;;10.70;58.64
37206;BME280;23099;42.636;23.198;2023-04-03T10:23:02;91163.91;;;10.62;59.30
37206;BME280;23099;42.636;23.198;2023-04-03T10:25:32;91154.34;;;10.58;57.92
37206;BME280;23099;42.636;23.198;2023-04-03T10:28:06;91171.53;;;10.68;59.26
37206;BME280;23099;42.636;23.198;2023-04-03T10:30:42;91157.78;;;10.69;58.89
37206;BME280;23099;42.636;23.198;2023-04-03T10:33:34;91160.88;;;10.82;58.53
37206;BME280;23099;42.636;23.198;2023-04-03T10:36:10;91144.81;;;10.75;58.68
37206;BME280;23099;42.636;23.198;2023-04-03T10:38:45;91135.66;;;10.76;59.28
37206;BME280;23099;42.636;23.198;2023-04-03T10:41:17;91147.13;;;10.66;59.18
37206;BME280;23099;42.636;23.198;2023-04-03T10:43:55;91134.88;;;10.75;59.86
37206;BME280;23099;42.636;23.198;2023-04-03T10:46:28;91132.19;;;10.68;59.60
37206;BME280;23099;42.636;23.198;2023-04-03T10:49:12;91145.59;;;10.65;59.07
37206;BME280;23099;42.636;23.198;2023-04-03T10:51:46;91141.38;;;10.74;58.62
37206;BME280;23099;42.636;23.198;2023-04-03T10:54:18;91130.31;;;10.76;60.21
37206;BME280;23099;42.636;23.198;2023-04-03T10:56:48;91139.50;;;10.82;62.03
37206;BME280;23099;42.636;23.198;2023-04-03T10:59:23;91141.38;;;10.78;63.00
37206;BME280;23099;42.636;23.198;2023-04-03T11:01:56;91138.72;;;10.78;62.06
37206;BME280;23099;42.636;23.198;2023-04-03T11:04:25;91148.25;;;10.65;65.08
37206;BME280;23099;42.636;23.198;2023-04-03T11:06:59;91147.47;;;10.68;66.81
37206;BME280;23099;42.636;23.198;2023-04-03T11:09:30;91137.56;;;10.75;68.02
37206;BME280;23099;42.636;23.198;2023-04-03T11:12:03;91149.78;;;10.66;68.72
37206;BME280;23099;42.636;23.198;2023-04-03T11:14:32;91145.22;;;10.66;71.09
37206;BME280;23099;42.636;23.198;2023-04-03T11:17:08;91141.75;;;10.51;73.73
37206;BME280;23099;42.636;23.198;2023-04-03T11:19:42;91150.13;;;10.36;74.71
37206;BME280;23099;42.636;23.198;2023-04-03T11:22:16;91140.50;;;10.13;75.97
37206;BME280;23099;42.636;23.198;2023-04-03T11:24:56;91142.41;;;10.09;78.75
37206;BME280;23099;42.636;23.198;2023-04-03T11:27:25;91143.50;;;9.94;79.06
37206;BME280;23099;42.636;23.198;2023-04-03T11:29:56;91140.06;;;9.93;82.06
37206;BME280;23099;42.636;23.198;2023-04-03T11:32:38;91148.28;;;9.53;83.43
37206;BME280;23099;42.636;23.198;2023-04-03T11:35:11;91142.97;;;9.56;87.25
37206;BME280;23099;42.636;23.198;2023-04-03T11:37:40;91150.56;;;9.47;87.91
37206;BME280;23099;42.636;23.198;2023-04-03T11:40:23;91146.31;;;9.39;87.83
37206;BME280;23099;42.636;23.198;2023-04-03T11:42:54;91149.41;;;9.48;88.71
37206;BME280;23099;42.636;23.198;2023-04-03T11:45:34;91145.50;;;9.32;90.61
37206;BME280;23099;42.636;23.198;2023-04-03T11:48:52;91140.38;;;9.02;93.37
37206;BME280;23099;42.636;23.198;2023-04-03T11:51:46;91136.91;;;8.94;95.28
37206;BME280;23099;42.636;23.198;2023-04-03T11:54:43;91143.63;;;8.77;98.29
37206;BME280;23099;42.636;23.198;2023-04-03T11:57:50;91135.91;;;8.62;99.61
37206;BME280;23099;42.636;23.198;2023-04-03T12:01:00;91133.94;;;8.55;97.94
37206;BME280;23099;42.636;23.198;2023-04-03T12:03:55;91137.81;;;8.61;99.60
37206;BME280;23099;42.636;23.198;2023-04-03T12:06:50;91139.25;;;8.55;99.62
37206;BME280;23099;42.636;23.198;2023-04-03T12:12:30;91120.53;;;8.44;100.00
37206;BME280;23099;42.636;23.198;2023-04-03T12:15:52;91113.59;;;8.33;100.00
37206;BME280;23099;42.636;23.198;2023-04-03T12:18:56;91114.28;;;8.30;100.00
37206;BME280;23099;42.636;23.198;2023-04-03T12:22:09;91103.94;;;8.18;100.00
37206;BME280;23099;42.636;23.198;2023-04-03T12:28:11;91081.50;;;8.19;100.00
37206;BME280;23099;42.636;23.198;2023-04-03T12:30:47;91100.50;;;8.17;100.00
37206;BME280;23099;42.636;23.198;2023-04-03T12:33:42;91082.56;;;8.07;100.00
37206;BME280;23099;42.636;23.198;2023-04-03T12:36:36;91077.50;;;7.98;100.00
37206;BME280;23099;42.636;23.198;2023-04-03T12:39:34;91067.53;;;7.88;100.00
37206;BME280;23099;42.636;23.198;2023-04-03T12:42:30;91062.50;;;7.79;100.00
37206;BME280;23099;42.636;23.198;2023-04-03T12:45:16;91033.34;;;7.50;100.00
37206;BME280;23099;42.636;23.198;2023-04-03T12:48:11;91036.84;;;7.57;100.00
37206;BME280;23099;42.636;23.198;2023-04-03T12:50:47;91036.06;;;7.57;100.00
37206;BME280;23099;42.636;23.198;2023-04-03T12:53:33;91033.00;;;7.55;100.00
37206;BME280;23099;42.636;23.198;2023-04-03T12:56:22;91039.78;;;7.49;100.00
37206;BME280;23099;42.636;23.198;2023-04-03T13:01:43;91062.03;;;7.33;100.00
37206;BME280;23099;42.636;23.198;2023-04-03T13:04:22;91045.63;;;7.28;100.00
37206;BME280;23099;42.636;23.198;2023-04-03T13:06:57;91047.31;;;7.09;100.00
37206;BME280;23099;42.636;23.198;2023-04-03T13:09:33;91034.84;;;7.14;100.00
37206;BME280;23099;42.636;23.198;2023-04-03T13:12:08;91046.53;;;7.05;100.00
37206;BME280;23099;42.636;23.198;2023-04-03T13:15:03;91049.25;;;7.13;100.00
37206;BME280;23099;42.636;23.198;2023-04-03T13:17:44;91036.59;;;7.02;100.00
37206;BME280;23099;42.636;23.198;2023-04-03T13:20:26;91035.44;;;7.00;100.00
37206;BME280;23099;42.636;23.198;2023-04-03T13:22:59;91022.44;;;6.91;100.00
37206;BME280;23099;42.636;23.198;2023-04-03T13:25:40;91040.09;;;6.80;100.00
37206;BME280;23099;42.636;23.198;2023-04-03T13:28:12;91019.28;;;6.82;100.00
37206;BME280;23099;42.636;23.198;2023-04-03T13:30:40;91025.09;;;6.91;100.00
37206;BME280;23099;42.636;23.198;2023-04-03T13:33:21;91007.63;;;6.90;100.00